createdAt,value
2023-01-19T00:02:47.295Z,75.43
2023-01-19T00:05:51.372Z,75.34
2023-01-19T00:08:53.995Z,75.59
2023-01-19T00:11:56.583Z,76.08
2023-01-19T00:14:59.140Z,76.33
2023-01-19T00:18:01.661Z,76.75
2023-01-19T00:21:05.713Z,77.40
2023-01-19T00:24:08.429Z,77.74
2023-01-19T00:27:10.962Z,77.87
2023-01-19T00:30:14.068Z,77.98
2023-01-19T00:33:16.659Z,78.02
2023-01-19T00:36:20.777Z,78.14
2023-01-19T00:39:23.310Z,78.48
2023-01-19T00:42:41.197Z,78.58
2023-01-19T00:45:43.791Z,78.57
2023-01-19T00:48:46.407Z,78.84
2023-01-19T00:51:50.300Z,78.61
2023-01-19T00:54:52.830Z,79.12
2023-01-19T00:57:55.388Z,79.20
2023-01-19T01:01:03.466Z,79.18
2023-01-19T01:04:06.629Z,79.19
2023-01-19T01:07:10.684Z,79.39
2023-01-19T01:10:14.213Z,79.50
2023-01-19T01:13:20.180Z,79.62
2023-01-19T01:16:24.972Z,79.83
2023-01-19T01:19:27.608Z,79.75
2023-01-19T01:22:31.698Z,79.97
2023-01-19T01:25:37.596Z,79.86
2023-01-19T01:28:40.143Z,79.89
2023-01-19T01:31:42.774Z,80.06
2023-01-19T01:34:45.372Z,80.17
2023-01-19T01:37:49.287Z,80.28
2023-01-19T01:40:51.828Z,80.59
2023-01-19T01:43:58.106Z,80.68
2023-01-19T01:47:00.768Z,80.85
2023-01-19T01:50:09.986Z,80.91
2023-01-19T01:53:14.528Z,81.04
2023-01-19T01:56:23.101Z,81.04
2023-01-19T01:59:29.707Z,80.91
2023-01-19T02:02:49.722Z,81.01
2023-01-19T02:05:52.259Z,81.30
2023-01-19T02:09:16.174Z,81.31
2023-01-19T02:12:36.358Z,81.37
2023-01-19T02:15:38.913Z,81.08
2023-01-19T02:18:41.647Z,80.92
2023-01-19T02:21:53.097Z,81.11
2023-01-19T02:24:56.967Z,81.03
2023-01-19T02:27:59.495Z,81.08
2023-01-19T02:31:02.128Z,81.12
2023-01-19T02:34:04.996Z,81.02
2023-01-19T02:37:08.660Z,81.26
2023-01-19T02:40:13.937Z,81.30
2023-01-19T02:43:16.536Z,81.10
2023-01-19T02:46:19.101Z,81.41
2023-01-19T02:49:21.648Z,81.26
2023-01-19T02:52:24.176Z,81.43
2023-01-19T02:55:28.832Z,81.35
2023-01-19T02:58:33.529Z,81.65
2023-01-19T03:01:41.950Z,81.76
2023-01-19T03:04:54.803Z,81.54
2023-01-19T03:08:00.106Z,81.96
2023-01-19T03:11:04.897Z,81.46
2023-01-19T03:14:09.869Z,81.83
2023-01-19T03:17:12.393Z,82.52
2023-01-19T03:20:15.020Z,82.43
2023-01-19T03:23:17.542Z,82.47
2023-01-19T03:26:24.667Z,82.65
2023-01-19T03:29:29.313Z,82.71
2023-01-19T03:32:35.456Z,82.72
2023-01-19T03:35:39.910Z,82.84
2023-01-19T03:38:42.657Z,82.67
2023-01-19T03:41:46.581Z,82.85
2023-01-19T03:44:50.606Z,83.00
2023-01-19T03:47:53.240Z,82.86
2023-01-19T03:50:56.038Z,82.99
2023-01-19T03:53:58.617Z,83.00
2023-01-19T03:57:02.536Z,82.76
2023-01-19T04:00:06.457Z,82.60
2023-01-19T04:03:13.856Z,82.48
2023-01-19T04:06:16.452Z,82.22
2023-01-19T04:09:20.136Z,81.95
2023-01-19T04:12:24.091Z,81.41
2023-01-19T04:15:26.737Z,81.27
2023-01-19T04:18:29.301Z,81.06
2023-01-19T04:21:31.822Z,80.83
2023-01-19T04:24:34.361Z,80.75
2023-01-19T04:27:38.332Z,80.62
2023-01-19T04:30:40.916Z,80.68
2023-01-19T04:33:43.496Z,80.40
2023-01-19T04:36:46.871Z,80.16
2023-01-19T04:39:49.450Z,80.10
2023-01-19T04:42:54.305Z,80.08
2023-01-19T04:45:56.876Z,79.70
2023-01-19T04:48:59.873Z,79.30
2023-01-19T04:52:02.486Z,79.38
2023-01-19T04:55:05.505Z,78.84
2023-01-19T04:58:09.375Z,78.67
2023-01-19T05:01:12.006Z,78.86
2023-01-19T05:04:14.577Z,78.80
2023-01-19T05:07:17.188Z,78.49
2023-01-19T05:10:20.204Z,78.94
2023-01-19T05:13:24.097Z,78.35
2023-01-19T05:16:26.689Z,78.28
2023-01-19T05:19:29.300Z,77.81
2023-01-19T05:22:31.989Z,77.77
2023-01-19T05:25:34.522Z,77.32
2023-01-19T05:28:38.772Z,77.07
2023-01-19T05:31:41.326Z,76.62
2023-01-19T05:34:43.896Z,75.96
2023-01-19T05:37:46.477Z,76.31
2023-01-19T05:40:49.502Z,75.87
2023-01-19T05:43:53.479Z,75.78
2023-01-19T05:46:56.160Z,75.60
2023-01-19T05:49:58.738Z,75.58
2023-01-19T05:53:01.680Z,75.34
2023-01-19T05:56:06.049Z,75.09
2023-01-19T05:59:10.359Z,75.01
2023-01-19T06:02:13.020Z,74.79
2023-01-19T06:05:15.652Z,74.93
2023-01-19T06:08:18.576Z,74.90
2023-01-19T06:11:21.901Z,74.86
2023-01-19T06:14:26.101Z,74.75
2023-01-19T06:17:28.683Z,75.11
2023-01-19T06:20:32.323Z,75.15
2023-01-19T06:23:35.223Z,75.15
2023-01-19T06:26:37.780Z,75.40
2023-01-19T06:29:41.659Z,75.53
2023-01-19T06:32:44.235Z,75.72
2023-01-19T06:35:47.088Z,75.80
2023-01-19T06:38:49.603Z,75.61
2023-01-19T06:41:52.136Z,75.91
2023-01-19T06:44:56.063Z,75.56
2023-01-19T06:47:58.609Z,75.94
2023-01-19T06:51:01.140Z,75.80
2023-01-19T06:54:03.891Z,75.90
2023-01-19T06:57:06.418Z,75.75
2023-01-19T07:00:11.763Z,75.67
2023-01-19T07:03:19.497Z,75.81
2023-01-19T07:06:22.225Z,75.74
2023-01-19T07:09:25.474Z,75.30
2023-01-19T07:12:28.104Z,75.60
2023-01-19T07:15:31.982Z,75.18
2023-01-19T07:18:34.611Z,74.73
2023-01-19T07:21:37.231Z,74.55
2023-01-19T07:24:39.805Z,74.16
2023-01-19T07:27:42.348Z,74.07
2023-01-19T07:30:47.038Z,73.29
2023-01-19T07:33:49.967Z,73.17
2023-01-19T07:36:52.500Z,72.97
2023-01-19T07:39:55.087Z,73.17
2023-01-19T07:42:57.695Z,72.83
2023-01-19T07:46:02.859Z,72.48
2023-01-19T07:49:05.512Z,72.49
2023-01-19T07:52:08.063Z,72.48
2023-01-19T07:55:10.953Z,72.77
2023-01-19T07:58:13.579Z,72.97
2023-01-19T08:01:17.993Z,73.07
2023-01-19T08:04:20.748Z,73.32
2023-01-19T08:07:23.410Z,73.17
2023-01-19T08:10:26.829Z,73.01
2023-01-19T08:13:29.413Z,73.18
2023-01-19T08:16:33.351Z,73.13
2023-01-19T08:19:36.011Z,72.77
2023-01-19T08:22:38.758Z,72.72
2023-01-19T08:25:44.317Z,72.42
2023-01-19T08:28:46.923Z,72.07
2023-01-19T08:31:50.918Z,71.71
2023-01-19T08:34:53.600Z,71.85
2023-01-19T08:37:56.736Z,71.42
2023-01-19T08:40:59.270Z,71.27
2023-01-19T08:44:01.825Z,71.52
2023-01-19T08:47:05.884Z,70.89
2023-01-19T08:50:10.671Z,71.19
2023-01-19T08:53:13.235Z,71.25
2023-01-19T08:56:15.833Z,70.74
2023-01-19T08:59:18.556Z,69.80
2023-01-19T09:02:22.547Z,68.29
2023-01-19T09:05:25.167Z,66.93
2023-01-19T09:08:28.078Z,66.52
2023-01-19T09:11:30.715Z,65.65
2023-01-19T09:14:33.524Z,64.44
2023-01-19T09:17:37.478Z,63.88
2023-01-19T09:20:42.379Z,63.37
2023-01-19T09:23:45.194Z,62.37
2023-01-19T09:26:47.932Z,61.84
2023-01-19T09:29:52.596Z,60.99
2023-01-19T09:32:58.630Z,61.05
2023-01-19T09:36:02.838Z,60.46
2023-01-19T09:39:05.415Z,59.82
2023-01-19T09:42:12.964Z,60.19
2023-01-19T09:45:16.109Z,59.40
2023-01-19T09:48:29.068Z,59.86
2023-01-19T09:51:34.561Z,58.43
2023-01-19T09:54:41.022Z,58.11
2023-01-19T09:57:45.127Z,57.44
2023-01-19T10:00:50.604Z,57.84
2023-01-19T10:04:03.761Z,57.18
2023-01-19T10:07:17.110Z,56.44
2023-01-19T10:10:21.611Z,55.79
2023-01-19T10:13:29.390Z,54.54
2023-01-19T10:16:39.678Z,54.54
2023-01-19T10:19:46.737Z,54.27
2023-01-19T10:22:50.277Z,54.72
2023-01-19T10:25:52.919Z,53.54
2023-01-19T10:28:57.887Z,53.09
2023-01-19T10:32:05.214Z,53.01
2023-01-19T10:35:15.151Z,52.67
2023-01-19T10:38:21.940Z,52.50
2023-01-19T10:41:27.261Z,50.76
2023-01-19T10:44:30.801Z,50.73
2023-01-19T10:47:35.490Z,51.75
2023-01-19T10:50:40.618Z,51.55
2023-01-19T10:53:43.996Z,51.25
2023-01-19T10:56:46.636Z,50.13
2023-01-19T10:59:50.778Z,49.87
2023-01-19T11:02:53.541Z,49.88
2023-01-19T11:05:59.734Z,50.05
2023-01-19T11:09:15.606Z,49.83
2023-01-19T11:12:19.742Z,48.79
2023-01-19T11:15:23.025Z,49.58
2023-01-19T11:18:28.148Z,49.78
2023-01-19T11:21:32.897Z,49.62
2023-01-19T11:24:36.746Z,50.39
2023-01-19T11:27:39.520Z,50.47
2023-01-19T11:30:55.057Z,50.38
2023-01-19T11:33:58.673Z,50.14
2023-01-19T11:37:03.621Z,50.23
2023-01-19T11:40:07.056Z,50.40
2023-01-19T11:43:11.381Z,50.27
2023-01-19T11:46:14.048Z,50.36
2023-01-19T11:49:19.999Z,50.03
2023-01-19T11:52:27.036Z,49.62
2023-01-19T11:55:34.008Z,49.38
2023-01-19T11:58:38.977Z,49.61
2023-01-19T12:01:43.448Z,49.35
2023-01-19T12:04:46.685Z,49.07
2023-01-19T12:07:50.679Z,49.45
2023-01-19T12:10:53.904Z,49.89
2023-01-19T12:13:56.452Z,50.08
2023-01-19T12:17:00.200Z,50.45
2023-01-19T12:20:07.033Z,50.46
2023-01-19T12:23:19.057Z,50.12
2023-01-19T12:26:29.893Z,49.75
2023-01-19T12:29:33.720Z,49.60
2023-01-19T12:32:36.766Z,49.93
2023-01-19T12:35:55.452Z,49.58
2023-01-19T12:39:01.878Z,49.44
2023-01-19T12:42:12.494Z,49.60
2023-01-19T12:45:15.568Z,49.94
2023-01-19T12:48:24.983Z,50.48
2023-01-19T12:51:27.612Z,50.77
2023-01-19T12:54:32.547Z,50.77
2023-01-19T12:57:36.827Z,50.52
2023-01-19T13:00:39.897Z,49.76
2023-01-19T13:03:47.517Z,49.36
2023-01-19T13:07:10.430Z,49.20
2023-01-19T13:10:50.624Z,50.15
2023-01-19T13:14:34.913Z,49.91
2023-01-19T13:17:40.184Z,50.01
2023-01-19T13:20:45.327Z,50.14
2023-01-19T13:23:53.339Z,49.91
2023-01-19T13:26:57.734Z,49.27
2023-01-19T13:30:01.547Z,49.37
2023-01-19T13:33:10.323Z,49.14
2023-01-19T13:36:22.637Z,49.56
2023-01-19T13:39:27.631Z,49.80
2023-01-19T13:42:31.374Z,49.94
2023-01-19T13:45:34.596Z,49.42
2023-01-19T13:48:38.494Z,49.10
2023-01-19T13:51:41.085Z,49.12
2023-01-19T13:54:50.290Z,48.91
2023-01-19T13:57:53.064Z,48.88
2023-01-19T14:00:55.760Z,48.99
2023-01-19T14:03:59.946Z,48.82
2023-01-19T14:07:04.296Z,48.28
2023-01-19T14:10:08.275Z,48.82
2023-01-19T14:13:15.342Z,48.98
2023-01-19T14:16:18.340Z,48.98
2023-01-19T14:19:22.350Z,48.83
2023-01-19T14:22:39.003Z,48.89
2023-01-19T14:25:45.086Z,48.96
2023-01-19T14:28:47.736Z,49.00
2023-01-19T14:31:51.489Z,49.05
2023-01-19T14:35:13.392Z,49.16
2023-01-19T14:38:16.022Z,49.25
2023-01-19T14:41:24.027Z,49.73
2023-01-19T14:44:29.301Z,49.56
2023-01-19T14:47:37.049Z,49.74
2023-01-19T14:50:51.013Z,49.75
2023-01-19T14:54:04.799Z,50.28
2023-01-19T14:57:11.715Z,50.44
2023-01-19T15:00:17.656Z,50.58
2023-01-19T15:03:20.256Z,50.93
2023-01-19T15:06:24.440Z,51.00
2023-01-19T15:09:27.103Z,51.24
2023-01-19T15:12:29.635Z,51.36
2023-01-19T15:15:33.135Z,51.96
2023-01-19T15:18:35.707Z,52.24
2023-01-19T15:21:41.940Z,52.34
2023-01-19T15:24:44.557Z,52.68
2023-01-19T15:27:47.300Z,53.10
2023-01-19T15:30:49.832Z,53.22
2023-01-19T15:33:52.372Z,53.11
2023-01-19T15:36:56.306Z,53.49
2023-01-19T15:39:58.904Z,53.34
2023-01-19T15:43:01.485Z,53.60
2023-01-19T15:46:06.266Z,53.76
2023-01-19T15:49:08.910Z,53.62
2023-01-19T15:52:12.867Z,53.86
2023-01-19T15:55:15.928Z,53.69
2023-01-19T15:58:20.495Z,54.15
2023-01-19T16:01:24.093Z,54.05
2023-01-19T16:04:26.708Z,54.06
2023-01-19T16:07:30.619Z,54.63
2023-01-19T16:10:33.258Z,54.89
2023-01-19T16:13:35.856Z,54.91
2023-01-19T16:16:38.629Z,55.01
2023-01-19T16:19:41.253Z,55.42
2023-01-19T16:22:45.142Z,55.58
2023-01-19T16:25:56.186Z,56.13
2023-01-19T16:28:59.859Z,56.34
2023-01-19T16:32:02.465Z,56.58
2023-01-19T16:35:05.459Z,56.79
2023-01-19T16:38:10.153Z,56.63
2023-01-19T16:41:12.707Z,56.78
2023-01-19T16:44:16.283Z,57.53
2023-01-19T16:47:18.836Z,57.78
2023-01-19T16:50:21.355Z,58.53
2023-01-19T16:53:25.285Z,59.21
2023-01-19T16:56:27.832Z,59.76
2023-01-19T16:59:30.444Z,60.42
2023-01-19T17:02:33.306Z,60.71
2023-01-19T17:05:35.851Z,61.34
2023-01-19T17:08:39.809Z,62.57
2023-01-19T17:11:42.507Z,62.69
2023-01-19T17:14:47.170Z,63.59
2023-01-19T17:17:49.699Z,64.59
2023-01-19T17:20:52.283Z,65.06
2023-01-19T17:23:56.571Z,65.89
2023-01-19T17:26:59.183Z,66.26
2023-01-19T17:30:01.794Z,66.56
2023-01-19T17:33:04.336Z,67.01
2023-01-19T17:36:08.033Z,67.29
2023-01-19T17:39:14.723Z,67.81
2023-01-19T17:42:17.467Z,67.88
2023-01-19T17:45:20.051Z,68.09
2023-01-19T17:48:22.619Z,67.68
2023-01-19T17:51:25.587Z,68.00
2023-01-19T17:54:29.725Z,68.01
2023-01-19T17:57:32.276Z,68.09
2023-01-19T18:00:34.832Z,68.58
2023-01-19T18:03:37.391Z,68.83
2023-01-19T18:06:40.095Z,69.08
2023-01-19T18:09:44.068Z,69.26
2023-01-19T18:12:46.594Z,69.20
2023-01-19T18:15:49.141Z,69.48
2023-01-19T18:18:53.413Z,69.19
2023-01-19T18:21:56.618Z,69.06
2023-01-19T18:25:01.619Z,68.86
2023-01-19T18:28:05.379Z,69.02
2023-01-19T18:31:08.175Z,69.60
2023-01-19T18:34:10.793Z,69.93
2023-01-19T18:37:13.335Z,69.91
2023-01-19T18:40:17.633Z,70.32
2023-01-19T18:43:20.203Z,70.53
2023-01-19T18:46:22.792Z,70.94
2023-01-19T18:49:25.387Z,71.28
2023-01-19T18:52:27.927Z,71.83
2023-01-19T18:55:31.794Z,71.78
2023-01-19T18:58:34.462Z,72.13
2023-01-19T19:01:37.127Z,72.38
2023-01-19T19:04:40.031Z,71.86
2023-01-19T19:07:42.801Z,71.89
2023-01-19T19:10:46.678Z,72.13
2023-01-19T19:13:52.588Z,72.14
2023-01-19T19:16:55.239Z,72.27
2023-01-19T19:19:57.805Z,72.36
2023-01-19T19:23:00.380Z,72.59
2023-01-19T19:26:04.780Z,72.63
2023-01-19T19:29:07.371Z,72.81
2023-01-19T19:32:09.947Z,72.88
2023-01-19T19:35:12.581Z,73.08
2023-01-19T19:38:15.118Z,72.77
2023-01-19T19:41:20.164Z,73.24
2023-01-19T19:44:22.744Z,72.96
2023-01-19T19:47:25.450Z,74.27
2023-01-19T19:50:28.021Z,74.73
2023-01-19T19:53:30.559Z,75.10
2023-01-19T19:56:34.776Z,75.12
2023-01-19T19:59:37.486Z,74.81
2023-01-19T20:02:40.031Z,75.27
2023-01-19T20:05:42.614Z,75.74
2023-01-19T20:08:45.181Z,76.28
2023-01-19T20:11:49.094Z,76.43
2023-01-19T20:14:51.647Z,77.68
2023-01-19T20:17:56.041Z,78.66
2023-01-19T20:20:58.730Z,79.13
2023-01-19T20:24:01.969Z,80.50
2023-01-19T20:27:05.944Z,81.06
2023-01-19T20:30:09.683Z,81.06
2023-01-19T20:33:12.220Z,80.64
2023-01-19T20:36:14.873Z,81.03
2023-01-19T20:39:17.562Z,81.74
2023-01-19T20:42:21.471Z,81.42
2023-01-19T20:45:25.938Z,81.75
2023-01-19T20:48:28.511Z,82.64
2023-01-19T20:51:31.064Z,83.31
2023-01-19T20:54:33.648Z,82.92
2023-01-19T20:57:37.568Z,83.10
2023-01-19T21:00:40.912Z,83.32
2023-01-19T21:03:43.516Z,83.18
2023-01-19T21:06:46.119Z,83.41
2023-01-19T21:09:48.733Z,83.49
2023-01-19T21:12:52.661Z,83.68
2023-01-19T21:15:55.222Z,83.49
2023-01-19T21:18:57.740Z,84.15
2023-01-19T21:22:00.310Z,84.39
2023-01-19T21:25:02.905Z,84.11
2023-01-19T21:28:07.048Z,84.31
2023-01-19T21:31:10.575Z,84.71
2023-01-19T21:34:14.020Z,85.05
2023-01-19T21:37:16.587Z,84.76
2023-01-19T21:40:19.932Z,85.01
2023-01-19T21:43:23.934Z,84.89
2023-01-19T21:46:28.863Z,84.49
2023-01-19T21:49:31.876Z,84.25
2023-01-19T21:52:34.448Z,83.95
2023-01-19T21:55:37.064Z,83.63
2023-01-19T21:58:40.988Z,83.74
2023-01-19T22:01:43.836Z,83.79
2023-01-19T22:04:46.479Z,83.83
2023-01-19T22:07:49.408Z,83.81
2023-01-19T22:10:51.996Z,83.74
2023-01-19T22:13:55.871Z,83.59
2023-01-19T22:16:58.455Z,83.44
2023-01-19T22:20:01.145Z,84.12
2023-01-19T22:23:03.679Z,83.99
2023-01-19T22:26:06.264Z,83.42
2023-01-19T22:29:11.786Z,83.43
2023-01-19T22:32:14.351Z,83.11
2023-01-19T22:35:17.188Z,83.83
2023-01-19T22:38:19.723Z,83.94
2023-01-19T22:41:22.929Z,83.84
2023-01-19T22:44:27.128Z,83.33
2023-01-19T22:47:29.750Z,83.35
2023-01-19T22:50:32.274Z,83.21
2023-01-19T22:53:34.846Z,83.88
2023-01-19T22:56:37.965Z,83.03
2023-01-19T22:59:43.537Z,83.23
2023-01-19T23:02:46.145Z,82.76
2023-01-19T23:05:48.771Z,83.00
2023-01-19T23:08:51.413Z,83.04
2023-01-19T23:11:54.053Z,82.78
2023-01-19T23:14:57.981Z,83.16
2023-01-19T23:18:00.577Z,82.86
2023-01-19T23:21:03.821Z,82.72
2023-01-19T23:24:06.776Z,82.88
2023-01-19T23:27:09.551Z,82.92
2023-01-19T23:30:14.379Z,83.17
2023-01-19T23:33:16.940Z,83.25
2023-01-19T23:36:19.777Z,83.36
2023-01-19T23:39:22.727Z,83.33
2023-01-19T23:42:25.261Z,83.65
2023-01-19T23:45:29.136Z,84.03
2023-01-19T23:48:31.667Z,84.20
2023-01-19T23:51:34.459Z,84.40
2023-01-19T23:54:37.195Z,84.65
2023-01-19T23:57:39.828Z,84.49
